createdAt,value
2022-08-28T00:02:05.182Z,3.30
2022-08-28T00:07:27.092Z,5.85
2022-08-28T00:12:49.553Z,2.10
2022-08-28T00:18:11.905Z,4.63
2022-08-28T00:23:43.007Z,1.98
2022-08-28T00:29:07.171Z,2.95
2022-08-28T00:34:33.089Z,3.05
2022-08-28T00:39:55.405Z,3.00
2022-08-28T00:45:23.499Z,2.65
2022-08-28T00:51:03.604Z,2.88
2022-08-28T00:56:27.113Z,4.35
2022-08-28T01:01:51.484Z,1.98
2022-08-28T01:07:15.245Z,1.97
2022-08-28T01:12:37.324Z,2.53
2022-08-28T01:18:08.067Z,3.10
2022-08-28T01:23:53.564Z,1.98
2022-08-28T01:29:15.880Z,2.10
2022-08-28T01:34:37.643Z,2.53
2022-08-28T01:40:01.625Z,3.00
2022-08-28T01:45:24.565Z,5.10
2022-08-28T01:50:46.337Z,4.35
2022-08-28T01:56:13.353Z,5.63
2022-08-28T02:01:38.835Z,5.88
2022-08-28T02:07:00.624Z,3.95
2022-08-28T02:12:22.330Z,4.35
2022-08-28T02:17:44.037Z,6.15
2022-08-28T02:23:06.807Z,4.50
2022-08-28T02:28:29.463Z,5.00
2022-08-28T02:33:51.342Z,4.22
2022-08-28T02:39:14.283Z,5.10
2022-08-28T02:44:36.869Z,4.55
2022-08-28T02:49:59.328Z,5.63
2022-08-28T02:55:21.251Z,4.85
2022-08-28T03:00:44.141Z,3.03
2022-08-28T03:06:06.804Z,4.50
2022-08-28T03:11:28.550Z,5.18
2022-08-28T03:16:50.346Z,4.82
2022-08-28T03:22:12.854Z,5.07
2022-08-28T03:27:34.720Z,5.68
2022-08-28T03:32:56.563Z,5.20
2022-08-28T03:38:18.688Z,3.83
2022-08-28T03:43:40.525Z,5.05
2022-08-28T03:49:03.861Z,5.18
2022-08-28T03:54:25.754Z,6.50
2022-08-28T03:59:49.457Z,4.55
2022-08-28T04:05:11.421Z,3.10
2022-08-28T04:10:33.772Z,5.30
2022-08-28T04:16:00.879Z,6.07
2022-08-28T04:21:24.575Z,4.72
2022-08-28T04:26:46.331Z,4.97
2022-08-28T04:32:08.160Z,4.50
2022-08-28T04:37:29.866Z,3.58
2022-08-28T04:42:51.896Z,4.95
2022-08-28T04:48:14.411Z,4.38
2022-08-28T04:53:38.442Z,4.22
2022-08-28T04:59:04.121Z,4.80
2022-08-28T05:04:27.839Z,4.28
2022-08-28T05:09:53.533Z,5.30
2022-08-28T05:15:15.295Z,9.35
2022-08-28T05:20:41.808Z,4.32
2022-08-28T05:26:03.630Z,4.22
2022-08-28T05:31:26.522Z,6.47
2022-08-28T05:36:48.998Z,4.57
2022-08-28T05:42:10.706Z,6.05
2022-08-28T05:47:32.970Z,5.13
2022-08-28T05:52:54.675Z,3.80
2022-08-28T05:58:32.024Z,6.38
2022-08-28T06:03:59.903Z,5.10
2022-08-28T06:09:29.093Z,3.42
2022-08-28T06:14:51.355Z,6.20
2022-08-28T06:20:13.097Z,7.95
2022-08-28T06:25:49.353Z,5.22
2022-08-28T06:31:28.779Z,7.80
2022-08-28T06:36:54.398Z,8.20
2022-08-28T06:42:16.274Z,5.25
2022-08-28T06:47:38.057Z,4.97
2022-08-28T06:53:00.236Z,5.85
2022-08-28T06:58:21.955Z,4.85
2022-08-28T07:03:48.003Z,4.68
2022-08-28T07:09:13.713Z,6.20
2022-08-28T07:14:35.447Z,7.35
2022-08-28T07:19:57.172Z,4.45
2022-08-28T07:25:19.005Z,3.42
2022-08-28T07:30:42.267Z,3.17
2022-08-28T07:36:15.645Z,4.40
2022-08-28T07:41:44.435Z,5.15
2022-08-28T07:47:08.877Z,2.55
2022-08-28T07:52:30.726Z,2.07
2022-08-28T07:57:52.418Z,3.78
2022-08-28T08:03:15.156Z,7.50
2022-08-28T08:08:37.505Z,6.35
2022-08-28T08:14:04.876Z,7.10
2022-08-28T08:19:27.886Z,5.22
2022-08-28T08:24:49.665Z,4.75
2022-08-28T08:30:12.166Z,6.28
2022-08-28T08:35:33.909Z,9.98
2022-08-28T08:40:55.883Z,7.22
2022-08-28T08:46:20.385Z,5.53
2022-08-28T08:51:48.108Z,4.93
2022-08-28T08:57:13.327Z,6.00
2022-08-28T09:08:03.104Z,4.43
2022-08-28T09:13:38.614Z,5.78
2022-08-28T09:19:01.477Z,5.50
2022-08-28T09:24:30.019Z,5.70
2022-08-28T09:30:02.611Z,5.35
2022-08-28T09:35:32.051Z,8.18
2022-08-28T09:41:30.510Z,5.77
2022-08-28T09:46:52.950Z,2.95
2022-08-28T09:52:25.159Z,5.63
2022-08-28T09:57:47.406Z,3.83
2022-08-28T10:03:20.295Z,4.95
2022-08-28T10:09:12.364Z,3.30
2022-08-28T10:14:57.145Z,4.95
2022-08-28T10:20:33.682Z,3.23
2022-08-28T10:26:04.562Z,2.95
2022-08-28T10:31:36.433Z,5.13
2022-08-28T10:37:19.079Z,5.00
2022-08-28T10:43:13.725Z,3.90
2022-08-28T10:49:08.480Z,8.82
2022-08-28T10:54:53.382Z,13.02
2022-08-28T11:00:19.366Z,11.77
2022-08-28T11:05:54.753Z,17.35
2022-08-28T11:11:44.985Z,11.50
2022-08-28T11:17:10.090Z,9.32
2022-08-28T11:22:44.111Z,10.90
2022-08-28T11:28:24.431Z,10.32
2022-08-28T11:33:50.658Z,9.10
2022-08-28T11:39:15.022Z,5.13
2022-08-28T11:44:46.078Z,4.60
2022-08-28T11:50:21.512Z,6.00
2022-08-28T11:56:01.714Z,4.63
2022-08-28T12:01:32.570Z,6.05
2022-08-28T12:07:12.416Z,4.13
2022-08-28T12:12:46.197Z,3.05
2022-08-28T12:18:10.831Z,4.30
2022-08-28T12:23:41.188Z,4.33
2022-08-28T12:29:06.987Z,5.18
2022-08-28T12:34:44.231Z,3.28
2022-08-28T12:40:13.823Z,4.25
2022-08-28T12:45:42.801Z,5.15
2022-08-28T12:51:08.638Z,2.38
2022-08-28T12:56:36.387Z,4.15
2022-08-28T13:02:12.132Z,4.40
2022-08-28T13:13:18.477Z,7.80
2022-08-28T13:18:59.287Z,3.97
2022-08-28T13:24:23.877Z,5.40
2022-08-28T13:30:08.985Z,4.10
2022-08-28T13:35:39.287Z,3.03
2022-08-28T13:41:04.592Z,4.93
2022-08-28T13:46:26.347Z,5.10
2022-08-28T13:51:48.677Z,2.25
2022-08-28T13:57:13.831Z,5.97
2022-08-28T14:02:57.911Z,5.40
2022-08-28T14:08:19.673Z,3.35
2022-08-28T14:13:47.080Z,2.72
2022-08-28T14:19:17.306Z,5.85
2022-08-28T14:24:39.317Z,5.50
2022-08-28T14:30:01.760Z,4.38
2022-08-28T14:35:23.617Z,10.57
2022-08-28T14:40:45.823Z,4.07
2022-08-28T14:46:11.536Z,3.95
2022-08-28T14:51:35.297Z,3.60
2022-08-28T14:56:57.139Z,7.25
2022-08-28T15:02:19.013Z,7.63
2022-08-28T15:07:40.678Z,5.32
2022-08-28T15:13:02.990Z,2.17
2022-08-28T15:18:25.099Z,5.40
2022-08-28T15:23:50.465Z,2.72
2022-08-28T15:29:12.408Z,3.25
2022-08-28T15:34:34.260Z,4.22
2022-08-28T15:40:15.101Z,4.13
2022-08-28T15:45:39.307Z,8.57
2022-08-28T15:51:01.242Z,3.97
2022-08-28T15:56:23.673Z,4.05
2022-08-28T16:01:46.436Z,4.20
2022-08-28T16:07:08.201Z,6.50
2022-08-28T16:12:29.945Z,2.85
2022-08-28T16:17:51.658Z,2.67
2022-08-28T16:23:14.356Z,2.30
2022-08-28T16:28:38.260Z,4.10
2022-08-28T16:34:01.014Z,2.45
2022-08-28T16:39:23.544Z,2.17
2022-08-28T16:44:45.254Z,5.05
2022-08-28T16:50:12.562Z,1.83
2022-08-28T16:55:35.187Z,2.03
2022-08-28T17:00:56.967Z,316.23
2022-08-28T17:06:29.504Z,209.25
2022-08-28T17:11:52.139Z,151.25
2022-08-28T17:17:14.162Z,119.22
2022-08-28T17:22:35.900Z,97.88
2022-08-28T17:27:58.271Z,83.95
2022-08-28T17:33:20.053Z,68.88
2022-08-28T17:38:45.163Z,59.25
2022-08-28T17:44:07.474Z,50.42
2022-08-28T17:49:29.196Z,38.00
2022-08-28T17:54:51.658Z,42.85
2022-08-28T18:00:16.434Z,35.70
2022-08-28T18:05:41.275Z,25.10
2022-08-28T18:11:03.035Z,22.80
2022-08-28T18:16:30.368Z,20.58
2022-08-28T18:21:54.472Z,20.27
2022-08-28T18:27:16.442Z,9.90
2022-08-28T18:32:38.148Z,12.82
2022-08-28T18:38:00.893Z,15.73
2022-08-28T18:43:22.800Z,8.80
2022-08-28T18:48:44.534Z,6.28
2022-08-28T18:54:06.401Z,9.60
2022-08-28T18:59:31.890Z,6.65
2022-08-28T19:04:54.009Z,9.50
2022-08-28T19:10:32.666Z,12.20
2022-08-28T19:15:55.725Z,9.93
2022-08-28T19:21:19.769Z,19.00
2022-08-28T19:26:41.454Z,25.50
2022-08-28T19:32:03.483Z,26.58
2022-08-28T19:37:25.521Z,21.52
2022-08-28T19:42:47.203Z,14.10
2022-08-28T19:48:09.302Z,12.90
2022-08-28T19:53:31.814Z,10.05
2022-08-28T19:58:54.967Z,24.80
2022-08-28T20:04:17.912Z,11.48
2022-08-28T20:09:39.746Z,10.63
2022-08-28T20:15:03.702Z,12.88
2022-08-28T20:20:29.749Z,8.57
2022-08-28T20:25:52.187Z,5.72
2022-08-28T20:31:16.556Z,9.70
2022-08-28T20:36:39.160Z,18.97
2022-08-28T20:42:00.977Z,10.52
2022-08-28T20:47:24.298Z,6.97
2022-08-28T20:52:46.019Z,3.85
2022-08-28T20:58:07.708Z,5.55
2022-08-28T21:03:29.406Z,5.75
2022-08-28T21:08:51.099Z,5.35
2022-08-28T21:14:13.476Z,3.85
2022-08-28T21:19:40.164Z,4.07
2022-08-28T21:25:02.972Z,3.33
2022-08-28T21:30:25.498Z,2.42
2022-08-28T21:35:51.574Z,3.45
2022-08-28T21:41:15.091Z,3.33
2022-08-28T21:46:36.835Z,2.03
2022-08-28T21:52:01.351Z,2.92
2022-08-28T21:57:24.437Z,2.93
2022-08-28T22:02:47.029Z,3.22
2022-08-28T22:08:08.814Z,2.58
2022-08-28T22:13:30.526Z,1.33
2022-08-28T22:18:52.331Z,1.90
2022-08-28T22:24:14.615Z,3.85
2022-08-28T22:29:36.751Z,2.65
2022-08-28T22:34:58.497Z,3.88
2022-08-28T22:40:21.894Z,6.22
2022-08-28T22:45:46.495Z,5.13
2022-08-28T22:51:12.725Z,1.40
2022-08-28T22:56:34.453Z,2.72
2022-08-28T23:01:56.622Z,1.20
2022-08-28T23:07:18.271Z,2.40
2022-08-28T23:12:40.280Z,2.08
2022-08-28T23:18:02.791Z,3.45
2022-08-28T23:23:25.150Z,1.42
2022-08-28T23:28:46.933Z,0.98
2022-08-28T23:34:08.846Z,2.25
2022-08-28T23:39:30.580Z,2.75
2022-08-28T23:44:52.260Z,1.67
2022-08-28T23:50:18.074Z,4.45
2022-08-28T23:55:39.838Z,3.55
